sensor_id;sensor_type;location;lat;lon;timestamp;pressure;altitude;pressure_sealevel;temperature;humidity
9077;BME280;4574;51.072;17.174;2022-08-03T00:02:19;63291.66;;;-139.42;100.00
9077;BME280;4574;51.072;17.174;2022-08-03T00:04:48;63291.66;;;-139.42;100.00
9077;BME280;4574;51.072;17.174;2022-08-03T00:07:18;63291.66;;;-139.42;100.00
9077;BME280;4574;51.072;17.174;2022-08-03T00:09:46;63291.66;;;-139.42;100.00
9077;BME280;4574;51.072;17.174;2022-08-03T00:12:16;63291.66;;;-139.42;100.00
9077;BME280;4574;51.072;17.174;2022-08-03T00:14:44;63291.66;;;-139.42;100.00
9077;BME280;4574;51.072;17.174;2022-08-03T00:17:13;63291.66;;;-139.42;100.00
9077;BME280;4574;51.072;17.174;2022-08-03T00:19:42;63291.66;;;-139.42;100.00
9077;BME280;4574;51.072;17.174;2022-08-03T00:22:10;63291.66;;;-139.42;100.00
9077;BME280;4574;51.072;17.174;2022-08-03T00:24:41;63291.66;;;-139.42;100.00
9077;BME280;4574;51.072;17.174;2022-08-03T00:27:09;100346.03;;;20.47;88.56
9077;BME280;4574;51.072;17.174;2022-08-03T00:29:42;100356.81;;;20.53;90.42
9077;BME280;4574;51.072;17.174;2022-08-03T00:32:26;100353.06;;;20.54;89.49
9077;BME280;4574;51.072;17.174;2022-08-03T00:34:54;100340.66;;;20.47;89.40
9077;BME280;4574;51.072;17.174;2022-08-03T00:37:25;100353.88;;;20.42;89.57
9077;BME280;4574;51.072;17.174;2022-08-03T00:40:11;100344.75;;;20.36;90.02
9077;BME280;4574;51.072;17.174;2022-08-03T00:42:47;100352.44;;;20.33;90.56
9077;BME280;4574;51.072;17.174;2022-08-03T00:45:17;100348.28;;;20.30;89.98
9077;BME280;4574;51.072;17.174;2022-08-03T00:47:45;100348.28;;;20.24;90.38
9077;BME280;4574;51.072;17.174;2022-08-03T00:50:15;100353.03;;;20.16;90.93
9077;BME280;4574;51.072;17.174;2022-08-03T00:52:43;100353.44;;;20.13;90.68
9077;BME280;4574;51.072;17.174;2022-08-03T00:55:14;100338.94;;;20.01;90.99
9077;BME280;4574;51.072;17.174;2022-08-03T00:57:43;100354.66;;;20.04;91.46
9077;BME280;4574;51.072;17.174;2022-08-03T01:00:16;100352.56;;;19.99;91.45
9077;BME280;4574;51.072;17.174;2022-08-03T01:02:45;100353.16;;;19.95;92.03
9077;BME280;4574;51.072;17.174;2022-08-03T01:05:14;100343.84;;;19.91;92.38
9077;BME280;4574;51.072;17.174;2022-08-03T01:07:54;100349.63;;;19.88;92.39
9077;BME280;4574;51.072;17.174;2022-08-03T01:10:35;100354.78;;;19.83;92.70
9077;BME280;4574;51.072;17.174;2022-08-03T01:13:16;100354.16;;;19.81;92.45
9077;BME280;4574;51.072;17.174;2022-08-03T01:16:08;100342.56;;;19.74;93.56
9077;BME280;4574;51.072;17.174;2022-08-03T01:18:44;100356.41;;;19.71;93.36
9077;BME280;4574;51.072;17.174;2022-08-03T01:21:19;100345.66;;;19.64;93.20
9077;BME280;4574;51.072;17.174;2022-08-03T01:24:04;63291.66;;;-139.42;100.00
9077;BME280;4574;51.072;17.174;2022-08-03T01:26:59;63291.66;;;-139.42;100.00
9077;BME280;4574;51.072;17.174;2022-08-03T01:32:38;63291.66;;;-139.42;100.00
9077;BME280;4574;51.072;17.174;2022-08-03T01:35:32;63291.66;;;-139.42;100.00
9077;BME280;4574;51.072;17.174;2022-08-03T01:38:08;63291.66;;;-139.42;100.00
9077;BME280;4574;51.072;17.174;2022-08-03T01:40:39;63291.66;;;-139.42;100.00
9077;BME280;4574;51.072;17.174;2022-08-03T01:43:11;63291.66;;;-139.42;100.00
9077;BME280;4574;51.072;17.174;2022-08-03T01:46:03;63291.66;;;-139.42;100.00
9077;BME280;4574;51.072;17.174;2022-08-03T01:48:35;63291.66;;;-139.42;100.00
9077;BME280;4574;51.072;17.174;2022-08-03T01:51:05;63291.66;;;-139.42;100.00
9077;BME280;4574;51.072;17.174;2022-08-03T01:53:36;63291.66;;;-139.42;100.00
9077;BME280;4574;51.072;17.174;2022-08-03T01:56:05;63291.66;;;-139.42;100.00
9077;BME280;4574;51.072;17.174;2022-08-03T01:58:35;63291.66;;;-139.42;100.00
9077;BME280;4574;51.072;17.174;2022-08-03T02:01:04;63291.66;;;-139.42;100.00
9077;BME280;4574;51.072;17.174;2022-08-03T02:03:37;63291.66;;;-139.42;100.00
9077;BME280;4574;51.072;17.174;2022-08-03T02:06:29;63291.66;;;-139.42;100.00
9077;BME280;4574;51.072;17.174;2022-08-03T02:09:20;63291.66;;;-139.42;100.00
9077;BME280;4574;51.072;17.174;2022-08-03T02:11:51;63291.66;;;-139.42;100.00
9077;BME280;4574;51.072;17.174;2022-08-03T02:14:21;63291.66;;;-139.42;100.00
9077;BME280;4574;51.072;17.174;2022-08-03T02:16:52;63291.66;;;-139.42;100.00
9077;BME280;4574;51.072;17.174;2022-08-03T02:19:24;63291.66;;;-139.42;100.00
9077;BME280;4574;51.072;17.174;2022-08-03T02:22:01;63291.66;;;-139.42;100.00
9077;BME280;4574;51.072;17.174;2022-08-03T02:24:31;63291.66;;;-139.42;100.00
9077;BME280;4574;51.072;17.174;2022-08-03T02:27:00;63291.66;;;-139.42;100.00
9077;BME280;4574;51.072;17.174;2022-08-03T02:29:32;63291.66;;;-139.42;100.00
9077;BME280;4574;51.072;17.174;2022-08-03T02:32:11;63291.66;;;-139.42;100.00
9077;BME280;4574;51.072;17.174;2022-08-03T02:34:49;63291.66;;;-139.42;100.00
9077;BME280;4574;51.072;17.174;2022-08-03T02:37:19;63291.66;;;-139.42;100.00
9077;BME280;4574;51.072;17.174;2022-08-03T02:39:49;63291.66;;;-139.42;100.00
9077;BME280;4574;51.072;17.174;2022-08-03T02:42:22;63291.66;;;-139.42;100.00
9077;BME280;4574;51.072;17.174;2022-08-03T02:44:55;63291.66;;;-139.42;100.00
9077;BME280;4574;51.072;17.174;2022-08-03T02:47:27;63291.66;;;-139.42;100.00
9077;BME280;4574;51.072;17.174;2022-08-03T02:50:17;63291.66;;;-139.42;100.00
9077;BME280;4574;51.072;17.174;2022-08-03T02:52:48;63291.66;;;-139.42;100.00
9077;BME280;4574;51.072;17.174;2022-08-03T02:55:19;63291.66;;;-139.42;100.00
9077;BME280;4574;51.072;17.174;2022-08-03T02:57:50;63291.66;;;-139.42;100.00
9077;BME280;4574;51.072;17.174;2022-08-03T03:00:20;63291.66;;;-139.42;100.00
9077;BME280;4574;51.072;17.174;2022-08-03T03:02:56;63291.66;;;-139.42;100.00
9077;BME280;4574;51.072;17.174;2022-08-03T03:05:28;63291.66;;;-139.42;100.00
9077;BME280;4574;51.072;17.174;2022-08-03T03:08:18;63291.66;;;-139.42;100.00
9077;BME280;4574;51.072;17.174;2022-08-03T03:10:56;63291.66;;;-139.42;100.00
9077;BME280;4574;51.072;17.174;2022-08-03T03:13:27;63291.66;;;-139.42;100.00
9077;BME280;4574;51.072;17.174;2022-08-03T03:15:59;63291.66;;;-139.42;100.00
9077;BME280;4574;51.072;17.174;2022-08-03T03:18:30;63291.66;;;-139.42;100.00
9077;BME280;4574;51.072;17.174;2022-08-03T03:21:02;63291.66;;;-139.42;100.00
9077;BME280;4574;51.072;17.174;2022-08-03T03:23:34;63291.66;;;-139.42;100.00
9077;BME280;4574;51.072;17.174;2022-08-03T03:26:04;63291.66;;;-139.42;100.00
9077;BME280;4574;51.072;17.174;2022-08-03T03:28:33;63291.66;;;-139.42;100.00
9077;BME280;4574;51.072;17.174;2022-08-03T03:31:04;63291.66;;;-139.42;100.00
9077;BME280;4574;51.072;17.174;2022-08-03T03:33:33;63291.66;;;-139.42;100.00
9077;BME280;4574;51.072;17.174;2022-08-03T03:36:05;63291.66;;;-139.42;100.00
9077;BME280;4574;51.072;17.174;2022-08-03T03:38:34;63291.66;;;-139.42;100.00
9077;BME280;4574;51.072;17.174;2022-08-03T03:41:03;63291.66;;;-139.42;100.00
9077;BME280;4574;51.072;17.174;2022-08-03T03:43:32;63291.66;;;-139.42;100.00
9077;BME280;4574;51.072;17.174;2022-08-03T03:46:01;63291.66;;;-139.42;100.00
9077;BME280;4574;51.072;17.174;2022-08-03T03:48:30;63291.66;;;-139.42;100.00
9077;BME280;4574;51.072;17.174;2022-08-03T03:50:59;63291.66;;;-139.42;100.00
9077;BME280;4574;51.072;17.174;2022-08-03T03:53:29;63291.66;;;-139.42;100.00
9077;BME280;4574;51.072;17.174;2022-08-03T03:55:58;63291.66;;;-139.42;100.00
9077;BME280;4574;51.072;17.174;2022-08-03T03:58:30;63291.66;;;-139.42;100.00
9077;BME280;4574;51.072;17.174;2022-08-03T04:00:59;63291.66;;;-139.42;100.00
9077;BME280;4574;51.072;17.174;2022-08-03T04:03:28;63291.66;;;-139.42;100.00
9077;BME280;4574;51.072;17.174;2022-08-03T04:05:57;63291.66;;;-139.42;100.00
9077;BME280;4574;51.072;17.174;2022-08-03T04:08:44;63291.66;;;-139.42;100.00
9077;BME280;4574;51.072;17.174;2022-08-03T04:11:35;63291.66;;;-139.42;100.00
9077;BME280;4574;51.072;17.174;2022-08-03T04:14:08;63291.66;;;-139.42;100.00
9077;BME280;4574;51.072;17.174;2022-08-03T04:16:41;63291.66;;;-139.42;100.00
9077;BME280;4574;51.072;17.174;2022-08-03T04:19:13;63291.66;;;-139.42;100.00
9077;BME280;4574;51.072;17.174;2022-08-03T04:21:50;63291.66;;;-139.42;100.00
9077;BME280;4574;51.072;17.174;2022-08-03T04:24:27;63291.66;;;-139.42;100.00
9077;BME280;4574;51.072;17.174;2022-08-03T04:26:58;63291.66;;;-139.42;100.00
9077;BME280;4574;51.072;17.174;2022-08-03T04:29:28;63291.66;;;-139.42;100.00
9077;BME280;4574;51.072;17.174;2022-08-03T04:31:59;63291.66;;;-139.42;100.00
9077;BME280;4574;51.072;17.174;2022-08-03T04:34:31;63291.66;;;-139.42;100.00
9077;BME280;4574;51.072;17.174;2022-08-03T04:37:02;63291.66;;;-139.42;100.00
9077;BME280;4574;51.072;17.174;2022-08-03T04:39:35;63291.66;;;-139.42;100.00
9077;BME280;4574;51.072;17.174;2022-08-03T04:42:07;63291.66;;;-139.42;100.00
9077;BME280;4574;51.072;17.174;2022-08-03T04:44:39;63291.66;;;-139.42;100.00
9077;BME280;4574;51.072;17.174;2022-08-03T04:47:08;63291.66;;;-139.42;100.00
9077;BME280;4574;51.072;17.174;2022-08-03T04:49:37;63291.66;;;-139.42;100.00
9077;BME280;4574;51.072;17.174;2022-08-03T04:52:06;63291.66;;;-139.42;100.00
9077;BME280;4574;51.072;17.174;2022-08-03T04:54:40;63291.66;;;-139.42;100.00
9077;BME280;4574;51.072;17.174;2022-08-03T04:57:16;63291.66;;;-139.42;100.00
9077;BME280;4574;51.072;17.174;2022-08-03T04:59:49;63291.66;;;-139.42;100.00
9077;BME280;4574;51.072;17.174;2022-08-03T05:02:28;63291.66;;;-139.42;100.00
9077;BME280;4574;51.072;17.174;2022-08-03T05:04:57;63291.66;;;-139.42;100.00
9077;BME280;4574;51.072;17.174;2022-08-03T05:07:26;63291.66;;;-139.42;100.00
9077;BME280;4574;51.072;17.174;2022-08-03T05:10:06;63291.66;;;-139.42;100.00
9077;BME280;4574;51.072;17.174;2022-08-03T05:12:42;63291.66;;;-139.42;100.00
9077;BME280;4574;51.072;17.174;2022-08-03T05:15:11;63291.66;;;-139.42;100.00
9077;BME280;4574;51.072;17.174;2022-08-03T05:17:40;63291.66;;;-139.42;100.00
9077;BME280;4574;51.072;17.174;2022-08-03T05:20:09;63291.66;;;-139.42;100.00
9077;BME280;4574;51.072;17.174;2022-08-03T05:22:38;63291.66;;;-139.42;100.00
9077;BME280;4574;51.072;17.174;2022-08-03T05:25:08;63291.66;;;-139.42;100.00
9077;BME280;4574;51.072;17.174;2022-08-03T05:27:45;63291.66;;;-139.42;100.00
9077;BME280;4574;51.072;17.174;2022-08-03T05:30:14;63291.66;;;-139.42;100.00
9077;BME280;4574;51.072;17.174;2022-08-03T05:32:59;63291.66;;;-139.42;100.00
9077;BME280;4574;51.072;17.174;2022-08-03T05:35:28;63291.66;;;-139.42;100.00
9077;BME280;4574;51.072;17.174;2022-08-03T05:38:16;63291.66;;;-139.42;100.00
9077;BME280;4574;51.072;17.174;2022-08-03T05:40:56;63291.66;;;-139.42;100.00
9077;BME280;4574;51.072;17.174;2022-08-03T05:43:45;63291.66;;;-139.42;100.00
9077;BME280;4574;51.072;17.174;2022-08-03T05:46:13;63291.66;;;-139.42;100.00
9077;BME280;4574;51.072;17.174;2022-08-03T05:48:42;63291.66;;;-139.42;100.00
9077;BME280;4574;51.072;17.174;2022-08-03T05:51:11;63291.66;;;-139.42;100.00
9077;BME280;4574;51.072;17.174;2022-08-03T05:53:40;63291.66;;;-139.42;100.00
9077;BME280;4574;51.072;17.174;2022-08-03T05:56:10;63291.66;;;-139.42;100.00
9077;BME280;4574;51.072;17.174;2022-08-03T05:58:43;63291.66;;;-139.42;100.00
9077;BME280;4574;51.072;17.174;2022-08-03T06:01:13;63291.66;;;-139.42;100.00
9077;BME280;4574;51.072;17.174;2022-08-03T06:03:43;63291.66;;;-139.42;100.00
9077;BME280;4574;51.072;17.174;2022-08-03T06:06:11;63291.66;;;-139.42;100.00
9077;BME280;4574;51.072;17.174;2022-08-03T06:08:40;63291.66;;;-139.42;100.00
9077;BME280;4574;51.072;17.174;2022-08-03T06:11:11;63291.66;;;-139.42;100.00
9077;BME280;4574;51.072;17.174;2022-08-03T06:13:39;63291.66;;;-139.42;100.00
9077;BME280;4574;51.072;17.174;2022-08-03T06:16:08;63291.66;;;-139.42;100.00
9077;BME280;4574;51.072;17.174;2022-08-03T06:18:37;63291.66;;;-139.42;100.00
9077;BME280;4574;51.072;17.174;2022-08-03T06:21:06;63291.66;;;-139.42;100.00
9077;BME280;4574;51.072;17.174;2022-08-03T06:23:42;63291.66;;;-139.42;100.00
9077;BME280;4574;51.072;17.174;2022-08-03T06:26:23;63291.66;;;-139.42;100.00
9077;BME280;4574;51.072;17.174;2022-08-03T06:28:52;63291.66;;;-139.42;100.00
9077;BME280;4574;51.072;17.174;2022-08-03T06:31:22;63291.66;;;-139.42;100.00
9077;BME280;4574;51.072;17.174;2022-08-03T06:34:00;63291.66;;;-139.42;100.00
9077;BME280;4574;51.072;17.174;2022-08-03T06:36:49;63291.66;;;-139.42;100.00
9077;BME280;4574;51.072;17.174;2022-08-03T06:39:19;63291.66;;;-139.42;100.00
9077;BME280;4574;51.072;17.174;2022-08-03T06:41:51;63291.66;;;-139.42;100.00
9077;BME280;4574;51.072;17.174;2022-08-03T06:44:20;63291.66;;;-139.42;100.00
9077;BME280;4574;51.072;17.174;2022-08-03T06:46:49;63291.66;;;-139.42;100.00
9077;BME280;4574;51.072;17.174;2022-08-03T06:49:18;63291.66;;;-139.42;100.00
9077;BME280;4574;51.072;17.174;2022-08-03T06:51:47;63291.66;;;-139.42;100.00
9077;BME280;4574;51.072;17.174;2022-08-03T06:54:35;63291.66;;;-139.42;100.00
9077;BME280;4574;51.072;17.174;2022-08-03T06:57:10;63291.66;;;-139.42;100.00
9077;BME280;4574;51.072;17.174;2022-08-03T06:59:39;63291.66;;;-139.42;100.00
9077;BME280;4574;51.072;17.174;2022-08-03T07:02:27;63291.66;;;-139.42;100.00
9077;BME280;4574;51.072;17.174;2022-08-03T07:04:57;63291.66;;;-139.42;100.00
9077;BME280;4574;51.072;17.174;2022-08-03T07:07:25;63291.66;;;-139.42;100.00
9077;BME280;4574;51.072;17.174;2022-08-03T07:09:54;63291.66;;;-139.42;100.00
9077;BME280;4574;51.072;17.174;2022-08-03T07:12:29;63291.66;;;-139.42;100.00
9077;BME280;4574;51.072;17.174;2022-08-03T07:14:59;63291.66;;;-139.42;100.00
9077;BME280;4574;51.072;17.174;2022-08-03T07:17:30;63291.66;;;-139.42;100.00
9077;BME280;4574;51.072;17.174;2022-08-03T07:19:59;63291.66;;;-139.42;100.00
9077;BME280;4574;51.072;17.174;2022-08-03T07:22:28;63291.66;;;-139.42;100.00
9077;BME280;4574;51.072;17.174;2022-08-03T07:24:57;63291.66;;;-139.42;100.00
9077;BME280;4574;51.072;17.174;2022-08-03T07:27:26;63291.66;;;-139.42;100.00
9077;BME280;4574;51.072;17.174;2022-08-03T07:29:57;63291.66;;;-139.42;100.00
9077;BME280;4574;51.072;17.174;2022-08-03T07:32:26;63291.66;;;-139.42;100.00
9077;BME280;4574;51.072;17.174;2022-08-03T07:34:57;63291.66;;;-139.42;100.00
9077;BME280;4574;51.072;17.174;2022-08-03T07:37:27;63291.66;;;-139.42;100.00
9077;BME280;4574;51.072;17.174;2022-08-03T07:39:56;63291.66;;;-139.42;100.00
9077;BME280;4574;51.072;17.174;2022-08-03T07:42:25;63291.66;;;-139.42;100.00
9077;BME280;4574;51.072;17.174;2022-08-03T07:44:54;63291.66;;;-139.42;100.00
9077;BME280;4574;51.072;17.174;2022-08-03T07:47:25;63291.66;;;-139.42;100.00
9077;BME280;4574;51.072;17.174;2022-08-03T07:50:02;63291.66;;;-139.42;100.00
9077;BME280;4574;51.072;17.174;2022-08-03T07:52:31;63291.66;;;-139.42;100.00
9077;BME280;4574;51.072;17.174;2022-08-03T07:55:16;63291.66;;;-139.42;100.00
9077;BME280;4574;51.072;17.174;2022-08-03T07:57:46;63291.66;;;-139.42;100.00
9077;BME280;4574;51.072;17.174;2022-08-03T08:00:16;63291.66;;;-139.42;100.00
9077;BME280;4574;51.072;17.174;2022-08-03T08:02:47;63291.66;;;-139.42;100.00
9077;BME280;4574;51.072;17.174;2022-08-03T08:05:16;63291.66;;;-139.42;100.00
9077;BME280;4574;51.072;17.174;2022-08-03T08:07:45;63291.66;;;-139.42;100.00
9077;BME280;4574;51.072;17.174;2022-08-03T08:10:18;63291.66;;;-139.42;100.00
9077;BME280;4574;51.072;17.174;2022-08-03T08:12:47;63291.66;;;-139.42;100.00
9077;BME280;4574;51.072;17.174;2022-08-03T08:15:15;63291.66;;;-139.42;100.00
9077;BME280;4574;51.072;17.174;2022-08-03T08:17:45;63291.66;;;-139.42;100.00
9077;BME280;4574;51.072;17.174;2022-08-03T08:20:20;63291.66;;;-139.42;100.00
9077;BME280;4574;51.072;17.174;2022-08-03T08:22:58;63291.66;;;-139.42;100.00
9077;BME280;4574;51.072;17.174;2022-08-03T08:25:28;63291.66;;;-139.42;100.00
9077;BME280;4574;51.072;17.174;2022-08-03T08:27:58;63291.66;;;-139.42;100.00
9077;BME280;4574;51.072;17.174;2022-08-03T08:30:48;63291.66;;;-139.42;100.00
9077;BME280;4574;51.072;17.174;2022-08-03T08:33:17;63291.66;;;-139.42;100.00
9077;BME280;4574;51.072;17.174;2022-08-03T08:35:51;63291.66;;;-139.42;100.00
9077;BME280;4574;51.072;17.174;2022-08-03T08:38:21;63291.66;;;-139.42;100.00
9077;BME280;4574;51.072;17.174;2022-08-03T08:40:49;63291.66;;;-139.42;100.00
9077;BME280;4574;51.072;17.174;2022-08-03T08:43:18;63291.66;;;-139.42;100.00
9077;BME280;4574;51.072;17.174;2022-08-03T08:45:48;63291.66;;;-139.42;100.00
9077;BME280;4574;51.072;17.174;2022-08-03T08:48:21;63291.66;;;-139.42;100.00
9077;BME280;4574;51.072;17.174;2022-08-03T08:50:53;63291.66;;;-139.42;100.00
9077;BME280;4574;51.072;17.174;2022-08-03T08:53:25;63291.66;;;-139.42;100.00
9077;BME280;4574;51.072;17.174;2022-08-03T08:55:57;63291.66;;;-139.42;100.00
9077;BME280;4574;51.072;17.174;2022-08-03T08:58:28;63291.66;;;-139.42;100.00
9077;BME280;4574;51.072;17.174;2022-08-03T09:00:57;63291.66;;;-139.42;100.00
9077;BME280;4574;51.072;17.174;2022-08-03T09:03:26;63291.66;;;-139.42;100.00
9077;BME280;4574;51.072;17.174;2022-08-03T09:05:59;63291.66;;;-139.42;100.00
9077;BME280;4574;51.072;17.174;2022-08-03T09:08:28;63291.66;;;-139.42;100.00
9077;BME280;4574;51.072;17.174;2022-08-03T09:10:57;63291.66;;;-139.42;100.00
9077;BME280;4574;51.072;17.174;2022-08-03T09:13:26;63291.66;;;-139.42;100.00
9077;BME280;4574;51.072;17.174;2022-08-03T09:16:17;63291.66;;;-139.42;100.00
9077;BME280;4574;51.072;17.174;2022-08-03T09:18:48;63291.66;;;-139.42;100.00
9077;BME280;4574;51.072;17.174;2022-08-03T09:21:21;63291.66;;;-139.42;100.00
9077;BME280;4574;51.072;17.174;2022-08-03T09:23:59;63291.66;;;-139.42;100.00
9077;BME280;4574;51.072;17.174;2022-08-03T09:26:33;63291.66;;;-139.42;100.00
9077;BME280;4574;51.072;17.174;2022-08-03T09:29:04;63291.66;;;-139.42;100.00
9077;BME280;4574;51.072;17.174;2022-08-03T09:31:41;63291.66;;;-139.42;100.00
9077;BME280;4574;51.072;17.174;2022-08-03T09:34:13;63291.66;;;-139.42;100.00
9077;BME280;4574;51.072;17.174;2022-08-03T09:36:44;63291.66;;;-139.42;100.00
9077;BME280;4574;51.072;17.174;2022-08-03T09:39:15;63291.66;;;-139.42;100.00
9077;BME280;4574;51.072;17.174;2022-08-03T09:41:45;63291.66;;;-139.42;100.00
9077;BME280;4574;51.072;17.174;2022-08-03T09:44:14;63291.66;;;-139.42;100.00
9077;BME280;4574;51.072;17.174;2022-08-03T09:46:53;63291.66;;;-139.42;100.00
9077;BME280;4574;51.072;17.174;2022-08-03T09:49:22;63291.66;;;-139.42;100.00
9077;BME280;4574;51.072;17.174;2022-08-03T09:51:52;63291.66;;;-139.42;100.00
9077;BME280;4574;51.072;17.174;2022-08-03T09:54:42;63291.66;;;-139.42;100.00
9077;BME280;4574;51.072;17.174;2022-08-03T09:57:19;63291.66;;;-139.42;100.00
9077;BME280;4574;51.072;17.174;2022-08-03T09:59:49;63291.66;;;-139.42;100.00
9077;BME280;4574;51.072;17.174;2022-08-03T10:02:30;63291.66;;;-139.42;100.00
9077;BME280;4574;51.072;17.174;2022-08-03T10:04:59;63291.66;;;-139.42;100.00
9077;BME280;4574;51.072;17.174;2022-08-03T10:07:29;63291.66;;;-139.42;100.00
9077;BME280;4574;51.072;17.174;2022-08-03T10:10:00;63291.66;;;-139.42;100.00
9077;BME280;4574;51.072;17.174;2022-08-03T10:12:49;63291.66;;;-139.42;100.00
9077;BME280;4574;51.072;17.174;2022-08-03T10:15:19;63291.66;;;-139.42;100.00
9077;BME280;4574;51.072;17.174;2022-08-03T10:18:08;63291.66;;;-139.42;100.00
9077;BME280;4574;51.072;17.174;2022-08-03T10:20:38;63291.66;;;-139.42;100.00
9077;BME280;4574;51.072;17.174;2022-08-03T10:23:10;63291.66;;;-139.42;100.00
9077;BME280;4574;51.072;17.174;2022-08-03T10:25:40;63291.66;;;-139.42;100.00
9077;BME280;4574;51.072;17.174;2022-08-03T10:28:12;63291.66;;;-139.42;100.00
9077;BME280;4574;51.072;17.174;2022-08-03T10:30:46;63291.66;;;-139.42;100.00
9077;BME280;4574;51.072;17.174;2022-08-03T10:33:18;63291.66;;;-139.42;100.00
9077;BME280;4574;51.072;17.174;2022-08-03T10:36:08;63291.66;;;-139.42;100.00
9077;BME280;4574;51.072;17.174;2022-08-03T10:38:42;63291.66;;;-139.42;100.00
9077;BME280;4574;51.072;17.174;2022-08-03T10:41:14;63291.66;;;-139.42;100.00
9077;BME280;4574;51.072;17.174;2022-08-03T10:43:47;63291.66;;;-139.42;100.00
9077;BME280;4574;51.072;17.174;2022-08-03T10:46:18;63291.66;;;-139.42;100.00
9077;BME280;4574;51.072;17.174;2022-08-03T10:48:48;63291.66;;;-139.42;100.00
9077;BME280;4574;51.072;17.174;2022-08-03T10:51:19;63291.66;;;-139.42;100.00
9077;BME280;4574;51.072;17.174;2022-08-03T10:53:49;63291.66;;;-139.42;100.00
9077;BME280;4574;51.072;17.174;2022-08-03T10:56:40;63291.66;;;-139.42;100.00
9077;BME280;4574;51.072;17.174;2022-08-03T10:59:57;63291.66;;;-139.42;100.00
9077;BME280;4574;51.072;17.174;2022-08-03T11:03:04;63291.66;;;-139.42;100.00
9077;BME280;4574;51.072;17.174;2022-08-03T11:05:35;63291.66;;;-139.42;100.00
9077;BME280;4574;51.072;17.174;2022-08-03T11:08:24;63291.66;;;-139.42;100.00
9077;BME280;4574;51.072;17.174;2022-08-03T11:11:00;63291.66;;;-139.42;100.00
9077;BME280;4574;51.072;17.174;2022-08-03T11:13:30;63291.66;;;-139.42;100.00
9077;BME280;4574;51.072;17.174;2022-08-03T11:16:02;63291.66;;;-139.42;100.00
9077;BME280;4574;51.072;17.174;2022-08-03T11:18:55;63291.66;;;-139.42;100.00
9077;BME280;4574;51.072;17.174;2022-08-03T11:21:51;63291.66;;;-139.42;100.00
9077;BME280;4574;51.072;17.174;2022-08-03T11:24:57;63291.66;;;-139.42;100.00
9077;BME280;4574;51.072;17.174;2022-08-03T11:27:30;63291.66;;;-139.42;100.00
9077;BME280;4574;51.072;17.174;2022-08-03T11:30:02;63291.66;;;-139.42;100.00
9077;BME280;4574;51.072;17.174;2022-08-03T11:32:50;63291.66;;;-139.42;100.00
9077;BME280;4574;51.072;17.174;2022-08-03T11:35:21;63291.66;;;-139.42;100.00
9077;BME280;4574;51.072;17.174;2022-08-03T11:38:09;63291.66;;;-139.42;100.00
9077;BME280;4574;51.072;17.174;2022-08-03T11:40:41;63291.66;;;-139.42;100.00
9077;BME280;4574;51.072;17.174;2022-08-03T11:43:44;63291.66;;;-139.42;100.00
9077;BME280;4574;51.072;17.174;2022-08-03T11:46:14;63291.66;;;-139.42;100.00
9077;BME280;4574;51.072;17.174;2022-08-03T11:49:03;63291.66;;;-139.42;100.00
9077;BME280;4574;51.072;17.174;2022-08-03T11:51:37;63291.66;;;-139.42;100.00
9077;BME280;4574;51.072;17.174;2022-08-03T11:54:06;63291.66;;;-139.42;100.00
9077;BME280;4574;51.072;17.174;2022-08-03T11:56:46;63291.66;;;-139.42;100.00
9077;BME280;4574;51.072;17.174;2022-08-03T11:59:16;63291.66;;;-139.42;100.00
9077;BME280;4574;51.072;17.174;2022-08-03T12:01:48;63291.66;;;-139.42;100.00
9077;BME280;4574;51.072;17.174;2022-08-03T12:04:17;63291.66;;;-139.42;100.00
9077;BME280;4574;51.072;17.174;2022-08-03T12:06:58;63291.66;;;-139.42;100.00
9077;BME280;4574;51.072;17.174;2022-08-03T12:09:28;63291.66;;;-139.42;100.00
9077;BME280;4574;51.072;17.174;2022-08-03T12:11:57;63291.66;;;-139.42;100.00
9077;BME280;4574;51.072;17.174;2022-08-03T12:14:28;63291.66;;;-139.42;100.00
9077;BME280;4574;51.072;17.174;2022-08-03T12:17:17;63291.66;;;-139.42;100.00
9077;BME280;4574;51.072;17.174;2022-08-03T12:19:46;63291.66;;;-139.42;100.00
9077;BME280;4574;51.072;17.174;2022-08-03T12:22:15;63291.66;;;-139.42;100.00
9077;BME280;4574;51.072;17.174;2022-08-03T12:24:44;63291.66;;;-139.42;100.00
9077;BME280;4574;51.072;17.174;2022-08-03T12:27:22;63291.66;;;-139.42;100.00
9077;BME280;4574;51.072;17.174;2022-08-03T12:29:53;63291.66;;;-139.42;100.00
9077;BME280;4574;51.072;17.174;2022-08-03T12:32:25;63291.66;;;-139.42;100.00
9077;BME280;4574;51.072;17.174;2022-08-03T12:34:54;63291.66;;;-139.42;100.00
9077;BME280;4574;51.072;17.174;2022-08-03T12:37:27;63291.66;;;-139.42;100.00
9077;BME280;4574;51.072;17.174;2022-08-03T12:39:58;63291.66;;;-139.42;100.00
9077;BME280;4574;51.072;17.174;2022-08-03T12:42:37;63291.66;;;-139.42;100.00
9077;BME280;4574;51.072;17.174;2022-08-03T12:45:22;63291.66;;;-139.42;100.00
9077;BME280;4574;51.072;17.174;2022-08-03T12:47:53;63291.66;;;-139.42;100.00
9077;BME280;4574;51.072;17.174;2022-08-03T12:50:23;63291.66;;;-139.42;100.00
9077;BME280;4574;51.072;17.174;2022-08-03T12:52:52;63291.66;;;-139.42;100.00
9077;BME280;4574;51.072;17.174;2022-08-03T12:55:22;63291.66;;;-139.42;100.00
9077;BME280;4574;51.072;17.174;2022-08-03T12:57:50;63291.66;;;-139.42;100.00
9077;BME280;4574;51.072;17.174;2022-08-03T13:00:21;63291.66;;;-139.42;100.00
9077;BME280;4574;51.072;17.174;2022-08-03T13:02:59;63291.66;;;-139.42;100.00
9077;BME280;4574;51.072;17.174;2022-08-03T13:05:49;63291.66;;;-139.42;100.00
9077;BME280;4574;51.072;17.174;2022-08-03T13:08:18;63291.66;;;-139.42;100.00
9077;BME280;4574;51.072;17.174;2022-08-03T13:10:50;63291.66;;;-139.42;100.00
9077;BME280;4574;51.072;17.174;2022-08-03T13:13:37;63291.66;;;-139.42;100.00
9077;BME280;4574;51.072;17.174;2022-08-03T13:16:07;63291.66;;;-139.42;100.00
9077;BME280;4574;51.072;17.174;2022-08-03T13:18:35;63291.66;;;-139.42;100.00